Time;durP1;ratioP1;P1;durP2;ratioP2;P2;SDS_P1;SDS_P2;PMS_P1;PMS_P2;Temp;Humidity;BMP_temperature;BMP_pressure;BME280_temperature;BME280_humidity;BME280_pressure;Samples;Min_cycle;Max_cycle;Signal;HPM_P1;HPM_P2
2022/08/03 00:01:38;;;;;;;;;;;22.40;47.50;;;;;;484111;246;1047;-51
2022/08/03 00:03:39;;;;;;;;;;;22.40;47.50;;;;;;484129;246;1102;-51
2022/08/03 00:05:41;;;;;;;;;;;22.40;47.50;;;;;;484233;246;1149;-51
2022/08/03 00:07:42;;;;;;;;;;;22.40;47.50;;;;;;484443;246;1085;-51
2022/08/03 00:09:43;;;;;;;;;;;22.40;47.60;;;;;;484527;246;1052;-52
2022/08/03 00:11:44;;;;;;;;;;;22.40;47.50;;;;;;484126;246;995;-51
2022/08/03 00:13:46;;;;;;;;;;;22.40;47.50;;;;;;484107;246;2172;-51
2022/08/03 00:15:47;;;;;;;;;;;22.40;47.50;;;;;;484586;246;1046;-50
2022/08/03 00:17:48;;;;;;;;;;;22.40;47.60;;;;;;484539;246;1067;-51
2022/08/03 00:19:50;;;;;;;;;;;22.40;47.60;;;;;;484433;246;1197;-51
2022/08/03 00:21:51;;;;;;;;;;;22.30;47.50;;;;;;484564;246;1078;-51
2022/08/03 00:23:53;;;;;;;;;;;22.40;47.60;;;;;;484142;246;1041;-51
2022/08/03 00:25:54;;;;;;;;;;;22.40;47.60;;;;;;484592;246;1047;-51
2022/08/03 00:27:55;;;;;;;;;;;22.40;47.60;;;;;;484488;246;974;-50
2022/08/03 00:29:57;;;;;;;;;;;22.40;47.60;;;;;;484559;246;978;-51
2022/08/03 00:31:58;;;;;;;;;;;22.40;47.50;;;;;;484286;246;1054;-51
2022/08/03 00:33:59;;;;;;;;;;;22.40;47.50;;;;;;484130;246;2133;-51
2022/08/03 00:36:00;;;;;;;;;;;22.40;47.60;;;;;;484238;246;1154;-51
2022/08/03 00:38:02;;;;;;;;;;;22.40;47.50;;;;;;484362;246;1036;-51
2022/08/03 00:40:03;;;;;;;;;;;22.40;47.60;;;;;;484605;246;1057;-52
2022/08/03 00:42:04;;;;;;;;;;;22.40;47.60;;;;;;484042;246;1081;-51
2022/08/03 00:44:06;;;;;;;;;;;22.40;47.60;;;;;;484286;246;1077;-51
2022/08/03 00:46:07;;;;;;;;;;;22.40;47.50;;;;;;484534;246;1064;-51
2022/08/03 00:48:08;;;;;;;;;;;22.40;47.60;;;;;;484104;246;1056;-51
2022/08/03 00:50:10;;;;;;;;;;;22.40;47.60;;;;;;484422;246;1645;-50
2022/08/03 00:52:11;;;;;;;;;;;22.40;47.60;;;;;;484604;246;1040;-51
2022/08/03 00:54:12;;;;;;;;;;;22.40;47.60;;;;;;484593;246;2181;-50
2022/08/03 00:56:14;;;;;;;;;;;22.40;47.50;;;;;;484374;246;1056;-51
2022/08/03 00:58:15;;;;;;;;;;;22.40;47.50;;;;;;484089;246;1058;-51
2022/08/03 01:00:17;;;;;;;;;;;22.40;47.60;;;;;;484140;246;1054;-51
2022/08/03 01:02:18;;;;;;;;;;;22.40;47.60;;;;;;484124;246;1052;-51
2022/08/03 01:04:19;;;;;;;;;;;22.40;47.60;;;;;;484570;246;1137;-51
2022/08/03 01:06:21;;;;;;;;;;;22.40;47.50;;;;;;484222;246;1153;-51
2022/08/03 01:08:22;;;;;;;;;;;22.40;47.60;;;;;;484128;246;1209;-51
2022/08/03 01:10:23;;;;;;;;;;;22.40;47.60;;;;;;484589;246;1052;-50
2022/08/03 01:12:25;;;;;;;;;;;22.40;47.60;;;;;;484093;246;2168;-51
2022/08/03 01:14:26;;;;;;;;;;;22.40;47.60;;;;;;484382;246;965;-50
2022/08/03 01:16:27;;;;;;;;;;;22.40;47.60;;;;;;484581;246;1017;-51
2022/08/03 01:18:28;;;;;;;;;;;22.40;47.60;;;;;;484211;246;1059;-51
2022/08/03 01:20:30;;;;;;;;;;;22.40;47.70;;;;;;484426;246;1290;-51
2022/08/03 01:22:31;;;;;;;;;;;22.40;47.70;;;;;;484460;246;1015;-51
2022/08/03 01:24:33;;;;;;;;;;;22.40;47.60;;;;;;491998;242;1045;-51
2022/08/03 01:26:34;;;;;;;;;;;22.40;47.60;;;;;;484935;246;987;-51
2022/08/03 01:28:35;;;;;;;;;;;22.40;47.60;;;;;;484354;246;1086;-51
2022/08/03 01:30:36;;;;;;;;;;;22.40;47.60;;;;;;484582;246;1060;-51
2022/08/03 01:32:38;;;;;;;;;;;22.40;47.60;;;;;;484135;246;2180;-51
2022/08/03 01:34:39;;;;;;;;;;;22.40;47.60;;;;;;484569;246;985;-51
2022/08/03 01:36:40;;;;;;;;;;;22.40;47.70;;;;;;484127;246;1204;-51
2022/08/03 01:38:42;;;;;;;;;;;22.40;47.60;;;;;;484558;246;981;-51
2022/08/03 01:40:43;;;;;;;;;;;22.40;47.70;;;;;;484095;246;1198;-50
2022/08/03 01:42:44;;;;;;;;;;;22.40;47.60;;;;;;484269;246;1044;-51
2022/08/03 01:44:47;;;;;;;;;;;22.40;47.70;;;;;;484052;246;1050;-51
2022/08/03 01:46:50;;;;;;;;;;;22.40;47.70;;;;;;484146;246;2102;-51
2022/08/03 01:48:49;;;;;;;;;;;22.40;47.70;;;;;;484120;246;2041;-51
2022/08/03 01:50:51;;;;;;;;;;;22.40;47.70;;;;;;484179;246;1147;-51
2022/08/03 01:52:52;;;;;;;;;;;22.40;47.70;;;;;;484407;246;2133;-51
2022/08/03 01:54:53;;;;;;;;;;;22.40;47.70;;;;;;484596;246;1024;-51
2022/08/03 01:56:55;;;;;;;;;;;22.40;47.70;;;;;;484327;246;1086;-50
2022/08/03 01:58:56;;;;;;;;;;;22.40;47.70;;;;;;484512;246;1099;-51
2022/08/03 02:00:59;;;;;;;;;;;22.40;47.70;;;;;;484103;246;1118;-51
2022/08/03 02:02:59;;;;;;;;;;;22.40;47.70;;;;;;484428;246;2294;-52
2022/08/03 02:05:00;;;;;;;;;;;22.40;47.70;;;;;;484359;246;1045;-51
2022/08/03 02:07:01;;;;;;;;;;;22.40;47.70;;;;;;484155;246;1171;-50
2022/08/03 02:09:03;;;;;;;;;;;22.40;47.80;;;;;;484228;246;1200;-51
2022/08/03 02:11:04;;;;;;;;;;;22.40;47.80;;;;;;484505;239;1347;-50
2022/08/03 02:13:05;;;;;;;;;;;22.40;47.80;;;;;;484320;246;2200;-51
2022/08/03 02:15:07;;;;;;;;;;;22.40;47.80;;;;;;484479;246;1017;-50
2022/08/03 02:17:08;;;;;;;;;;;22.40;47.70;;;;;;484519;246;1106;-51
2022/08/03 02:19:10;;;;;;;;;;;22.40;47.70;;;;;;484090;246;1054;-51
2022/08/03 02:21:11;;;;;;;;;;;22.40;47.70;;;;;;484420;246;1314;-51
2022/08/03 02:23:12;;;;;;;;;;;22.40;47.70;;;;;;484554;246;1076;-51
2022/08/03 02:25:14;;;;;;;;;;;22.40;47.80;;;;;;484439;246;985;-51
2022/08/03 02:27:15;;;;;;;;;;;22.40;47.80;;;;;;484023;246;1026;-51
2022/08/03 02:29:16;;;;;;;;;;;22.40;47.80;;;;;;484391;246;1040;-50
2022/08/03 02:31:18;;;;;;;;;;;22.40;47.80;;;;;;484147;246;1110;-51
2022/08/03 02:33:19;;;;;;;;;;;22.30;47.80;;;;;;484150;246;2133;-51
2022/08/03 02:35:20;;;;;;;;;;;22.40;47.80;;;;;;484280;246;1203;-51
2022/08/03 02:37:22;;;;;;;;;;;22.40;47.90;;;;;;484202;246;1204;-51
2022/08/03 02:39:23;;;;;;;;;;;22.40;47.90;;;;;;484239;246;1265;-51
2022/08/03 02:41:24;;;;;;;;;;;22.40;47.80;;;;;;484546;246;1333;-51
2022/08/03 02:43:26;;;;;;;;;;;22.30;47.80;;;;;;484555;246;1196;-51
2022/08/03 02:45:27;;;;;;;;;;;22.40;47.80;;;;;;484103;246;1247;-51
2022/08/03 02:47:28;;;;;;;;;;;22.40;47.80;;;;;;484568;246;1178;-51
2022/08/03 02:49:30;;;;;;;;;;;22.40;47.80;;;;;;484576;246;1054;-51
2022/08/03 02:51:31;;;;;;;;;;;22.40;47.80;;;;;;484131;246;1502;-51
2022/08/03 02:53:33;;;;;;;;;;;22.40;47.80;;;;;;484266;246;2188;-51
2022/08/03 02:55:34;;;;;;;;;;;22.40;47.80;;;;;;484221;246;1158;-50
2022/08/03 02:57:35;;;;;;;;;;;22.40;47.80;;;;;;484073;246;1104;-51
2022/08/03 02:59:37;;;;;;;;;;;22.40;47.80;;;;;;484534;246;1067;-51
2022/08/03 03:01:38;;;;;;;;;;;22.40;47.80;;;;;;484597;246;1451;-50
2022/08/03 03:03:39;;;;;;;;;;;22.40;47.80;;;;;;484593;246;1066;-51
2022/08/03 03:05:41;;;;;;;;;;;22.40;47.80;;;;;;484599;246;1307;-51
2022/08/03 03:07:42;;;;;;;;;;;22.40;47.80;;;;;;484165;246;1184;-51
2022/08/03 03:09:43;;;;;;;;;;;22.40;47.80;;;;;;484651;246;1063;-51
2022/08/03 03:11:45;;;;;;;;;;;22.40;47.80;;;;;;484490;246;1015;-51
2022/08/03 03:13:46;;;;;;;;;;;22.40;47.80;;;;;;484114;246;2191;-51
2022/08/03 03:15:48;;;;;;;;;;;22.40;47.80;;;;;;484467;246;1005;-50
2022/08/03 03:17:49;;;;;;;;;;;22.40;47.80;;;;;;484583;246;1083;-50
2022/08/03 03:19:50;;;;;;;;;;;22.40;47.80;;;;;;484145;246;1230;-51
2022/08/03 03:21:52;;;;;;;;;;;22.40;47.80;;;;;;484128;246;1209;-51
2022/08/03 03:23:53;;;;;;;;;;;22.40;47.80;;;;;;484586;246;1254;-51
2022/08/03 03:25:54;;;;;;;;;;;22.40;47.80;;;;;;484450;246;1255;-51
2022/08/03 03:27:56;;;;;;;;;;;22.40;47.80;;;;;;484526;246;1508;-51
2022/08/03 03:29:57;;;;;;;;;;;22.40;47.80;;;;;;484184;246;1244;-51
2022/08/03 03:31:58;;;;;;;;;;;22.40;47.80;;;;;;484237;246;1153;-51
2022/08/03 03:34:00;;;;;;;;;;;22.40;47.80;;;;;;484338;246;2128;-51
2022/08/03 03:36:01;;;;;;;;;;;22.40;47.90;;;;;;484587;246;1234;-51
2022/08/03 03:38:02;;;;;;;;;;;22.40;47.90;;;;;;484212;246;1198;-51
2022/08/03 03:40:04;;;;;;;;;;;22.40;47.80;;;;;;484623;246;1070;-51
2022/08/03 03:42:05;;;;;;;;;;;22.40;47.90;;;;;;484128;246;1059;-51
2022/08/03 03:44:06;;;;;;;;;;;22.40;47.90;;;;;;484151;246;1018;-51
2022/08/03 03:46:08;;;;;;;;;;;22.40;47.90;;;;;;484578;246;1133;-51
2022/08/03 03:48:09;;;;;;;;;;;22.40;47.80;;;;;;484566;246;1066;-51
2022/08/03 03:50:10;;;;;;;;;;;22.40;47.80;;;;;;484165;246;1069;-51
2022/08/03 03:52:12;;;;;;;;;;;22.40;47.90;;;;;;484132;246;1283;-51
2022/08/03 03:54:13;;;;;;;;;;;22.40;47.80;;;;;;484213;246;2129;-51
2022/08/03 03:56:14;;;;;;;;;;;22.40;47.80;;;;;;484157;246;1536;-51
2022/08/03 03:58:16;;;;;;;;;;;22.50;47.90;;;;;;484191;246;1215;-50
2022/08/03 04:00:17;;;;;;;;;;;22.40;47.90;;;;;;484589;246;1024;-51
2022/08/03 04:02:18;;;;;;;;;;;22.40;47.90;;;;;;484066;246;1093;-51
2022/08/03 04:11:19;;;;;;;;;;;22.50;47.90;;;;;;468276;246;1364;-51
2022/08/03 04:13:20;;;;;;;;;;;22.50;47.80;;;;;;484097;246;1054;-51
2022/08/03 04:15:21;;;;;;;;;;;22.50;47.80;;;;;;484537;246;2112;-51
2022/08/03 04:17:23;;;;;;;;;;;22.40;47.80;;;;;;484323;246;1116;-51
2022/08/03 04:19:24;;;;;;;;;;;22.40;47.90;;;;;;484035;246;1336;-51
2022/08/03 04:21:25;;;;;;;;;;;22.40;47.90;;;;;;484169;246;1252;-51
2022/08/03 04:23:27;;;;;;;;;;;22.40;47.80;;;;;;484115;246;1261;-51
2022/08/03 04:25:28;;;;;;;;;;;22.40;47.80;;;;;;484289;246;1144;-51
2022/08/03 04:27:29;;;;;;;;;;;22.50;47.90;;;;;;484084;246;1101;-51
2022/08/03 04:29:31;;;;;;;;;;;22.50;47.90;;;;;;484006;246;1299;-50
2022/08/03 04:31:32;;;;;;;;;;;22.50;47.90;;;;;;483897;246;1203;-51
2022/08/03 04:33:33;;;;;;;;;;;22.40;47.90;;;;;;483917;246;2137;-51
2022/08/03 04:35:35;;;;;;;;;;;22.40;47.90;;;;;;484036;246;1169;-51
2022/08/03 04:37:36;;;;;;;;;;;22.50;47.90;;;;;;484201;246;1239;-52
2022/08/03 04:39:37;;;;;;;;;;;22.40;47.90;;;;;;483862;246;1329;-51
2022/08/03 04:41:39;;;;;;;;;;;22.50;48.00;;;;;;484069;246;1165;-50
2022/08/03 04:43:40;;;;;;;;;;;22.40;48.00;;;;;;484262;246;1263;-50
2022/08/03 04:45:41;;;;;;;;;;;22.50;48.10;;;;;;483974;246;1264;-51
2022/08/03 04:47:43;;;;;;;;;;;22.50;48.20;;;;;;484305;246;1215;-51
2022/08/03 04:49:44;;;;;;;;;;;22.50;48.30;;;;;;483934;246;1226;-51
2022/08/03 04:51:46;;;;;;;;;;;22.40;48.20;;;;;;484344;246;1281;-51
2022/08/03 04:53:47;;;;;;;;;;;22.40;48.10;;;;;;484065;246;2141;-51
2022/08/03 04:55:48;;;;;;;;;;;22.40;48.20;;;;;;484364;246;1214;-51
2022/08/03 04:57:50;;;;;;;;;;;22.40;48.10;;;;;;483899;246;1182;-52
2022/08/03 04:59:53;;;;;;;;;;;22.40;48.10;;;;;;483904;246;1297;-51
2022/08/03 05:01:53;;;;;;;;;;;22.40;48.00;;;;;;483883;246;2359;-51
2022/08/03 05:03:54;;;;;;;;;;;22.40;48.00;;;;;;483790;246;1065;-51
2022/08/03 05:05:56;;;;;;;;;;;22.40;47.90;;;;;;483729;246;1229;-51
2022/08/03 05:07:57;;;;;;;;;;;22.30;47.80;;;;;;483879;246;1182;-51
2022/08/03 05:09:58;;;;;;;;;;;22.40;47.80;;;;;;484097;246;1026;-51
2022/08/03 05:12:00;;;;;;;;;;;22.30;47.70;;;;;;491497;242;1153;-51
2022/08/03 05:14:01;;;;;;;;;;;22.40;47.80;;;;;;484140;246;2129;-51
2022/08/03 05:16:03;;;;;;;;;;;22.30;47.70;;;;;;484135;246;1073;-52
2022/08/03 05:18:04;;;;;;;;;;;22.30;47.60;;;;;;483885;246;1121;-51
2022/08/03 05:20:05;;;;;;;;;;;22.30;47.60;;;;;;483899;246;1021;-51
2022/08/03 05:22:07;;;;;;;;;;;22.30;47.50;;;;;;483888;246;1035;-52
2022/08/03 05:24:08;;;;;;;;;;;22.30;47.50;;;;;;483982;246;1203;-51
2022/08/03 05:26:11;;;;;;;;;;;22.30;47.40;;;;;;483804;246;1106;-51
2022/08/03 05:28:12;;;;;;;;;;;22.30;47.40;;;;;;483854;246;1083;-50
2022/08/03 05:30:14;;;;;;;;;;;22.30;47.30;;;;;;484069;246;1009;-51
2022/08/03 05:32:15;;;;;;;;;;;22.30;47.20;;;;;;483959;246;1103;-51
2022/08/03 05:34:16;;;;;;;;;;;22.30;47.20;;;;;;483861;246;2117;-51
2022/08/03 05:36:17;;;;;;;;;;;22.30;47.20;;;;;;484271;246;1316;-51
2022/08/03 05:38:19;;;;;;;;;;;22.30;47.20;;;;;;483707;246;1154;-51
2022/08/03 05:40:20;;;;;;;;;;;22.30;47.10;;;;;;483714;246;1137;-51
2022/08/03 05:42:22;;;;;;;;;;;22.30;47.10;;;;;;483849;246;1166;-51
2022/08/03 05:44:24;;;;;;;;;;;22.30;47.00;;;;;;483677;246;1067;-51
2022/08/03 05:46:25;;;;;;;;;;;22.30;47.00;;;;;;483662;246;2321;-51
2022/08/03 05:48:26;;;;;;;;;;;22.30;46.90;;;;;;483770;246;1075;-50
2022/08/03 05:50:27;;;;;;;;;;;22.20;46.80;;;;;;483902;246;1427;-51
2022/08/03 05:52:29;;;;;;;;;;;22.30;46.80;;;;;;483687;246;1142;-51
2022/08/03 05:54:30;;;;;;;;;;;22.20;46.70;;;;;;483807;246;2196;-52
2022/08/03 05:56:31;;;;;;;;;;;22.20;46.70;;;;;;483833;246;1388;-51
2022/08/03 05:58:32;;;;;;;;;;;22.20;46.70;;;;;;483660;246;1224;-51
2022/08/03 06:00:34;;;;;;;;;;;22.20;46.70;;;;;;483984;246;1183;-51
2022/08/03 06:02:35;;;;;;;;;;;22.20;46.70;;;;;;483678;246;1205;-50
2022/08/03 06:04:36;;;;;;;;;;;22.20;46.70;;;;;;483644;246;1205;-51
2022/08/03 06:06:38;;;;;;;;;;;22.20;46.70;;;;;;483599;246;1307;-51
2022/08/03 06:08:39;;;;;;;;;;;22.20;46.60;;;;;;483639;246;1282;-51
2022/08/03 06:10:40;;;;;;;;;;;22.20;46.50;;;;;;483621;246;1129;-51
2022/08/03 06:12:43;;;;;;;;;;;22.30;46.50;;;;;;483662;246;1137;-51
2022/08/03 06:14:43;;;;;;;;;;;22.30;46.50;;;;;;483552;246;2410;-51
2022/08/03 06:16:44;;;;;;;;;;;22.30;46.50;;;;;;483560;246;1157;-50
2022/08/03 06:18:46;;;;;;;;;;;22.30;46.50;;;;;;483807;246;1082;-51
2022/08/03 06:20:47;;;;;;;;;;;22.20;46.50;;;;;;483710;246;1069;-51
2022/08/03 06:22:48;;;;;;;;;;;22.20;46.50;;;;;;483699;246;1049;-51
2022/08/03 06:24:50;;;;;;;;;;;22.20;46.50;;;;;;483671;246;1200;-51
2022/08/03 06:26:51;;;;;;;;;;;22.20;46.50;;;;;;483833;246;1088;-51
2022/08/03 06:28:53;;;;;;;;;;;22.20;46.50;;;;;;483940;246;1180;-51
2022/08/03 06:30:54;;;;;;;;;;;22.20;46.50;;;;;;483839;246;1150;-51
2022/08/03 06:32:55;;;;;;;;;;;22.20;46.50;;;;;;483608;246;1074;-51
2022/08/03 06:34:56;;;;;;;;;;;22.20;46.50;;;;;;483787;246;2188;-50
2022/08/03 06:36:58;;;;;;;;;;;22.20;46.50;;;;;;483817;246;1038;-51
2022/08/03 06:38:59;;;;;;;;;;;22.20;46.70;;;;;;483627;246;1272;-50
2022/08/03 06:41:00;;;;;;;;;;;22.20;46.50;;;;;;483706;246;1190;-51
2022/08/03 06:43:02;;;;;;;;;;;22.30;46.40;;;;;;483598;246;1228;-52
2022/08/03 06:45:05;;;;;;;;;;;22.20;46.30;;;;;;483605;246;1130;-50
2022/08/03 06:47:05;;;;;;;;;;;22.20;46.20;;;;;;491076;242;1314;-51
2022/08/03 06:49:06;;;;;;;;;;;22.30;46.30;;;;;;484048;246;1525;-51
2022/08/03 06:51:07;;;;;;;;;;;22.30;46.30;;;;;;483641;246;1172;-51
2022/08/03 06:53:09;;;;;;;;;;;22.20;46.60;;;;;;483675;246;1187;-50
2022/08/03 06:55:10;;;;;;;;;;;22.30;46.40;;;;;;482964;246;2204;-51
2022/08/03 06:57:11;;;;;;;;;;;22.30;46.30;;;;;;483129;246;1257;-51
2022/08/03 06:59:13;;;;;;;;;;;22.30;46.20;;;;;;483266;246;1298;-51
2022/08/03 07:01:14;;;;;;;;;;;22.40;46.20;;;;;;483317;246;1384;-50
2022/08/03 07:03:15;;;;;;;;;;;22.40;46.10;;;;;;483350;246;1178;-52
2022/08/03 07:05:17;;;;;;;;;;;22.30;46.00;;;;;;483434;246;1161;-51
2022/08/03 07:07:19;;;;;;;;;;;22.40;46.00;;;;;;483402;246;1114;-51
2022/08/03 07:09:19;;;;;;;;;;;22.40;46.00;;;;;;483303;246;2159;-51
2022/08/03 07:11:21;;;;;;;;;;;22.40;46.00;;;;;;483324;246;1068;-51
2022/08/03 07:13:22;;;;;;;;;;;22.40;46.00;;;;;;483414;246;1101;-51
2022/08/03 07:15:23;;;;;;;;;;;22.40;45.90;;;;;;483412;246;2133;-51
2022/08/03 07:17:25;;;;;;;;;;;22.40;45.90;;;;;;483313;246;1201;-50
2022/08/03 07:19:26;;;;;;;;;;;22.40;45.90;;;;;;483355;246;1107;-50
2022/08/03 07:21:27;;;;;;;;;;;22.40;45.90;;;;;;483419;246;1069;-51
2022/08/03 07:23:29;;;;;;;;;;;22.40;45.90;;;;;;483190;246;1122;-50
2022/08/03 07:25:30;;;;;;;;;;;22.40;45.80;;;;;;483231;246;1194;-51
2022/08/03 07:27:32;;;;;;;;;;;22.50;45.90;;;;;;483102;246;1310;-51
2022/08/03 07:29:33;;;;;;;;;;;22.50;45.80;;;;;;483204;246;2417;-51
2022/08/03 07:31:34;;;;;;;;;;;22.40;45.80;;;;;;483318;246;1120;-51
2022/08/03 07:33:35;;;;;;;;;;;22.50;45.80;;;;;;483194;246;1446;-50
2022/08/03 07:35:37;;;;;;;;;;;22.50;45.80;;;;;;483305;246;2128;-51
2022/08/03 07:37:38;;;;;;;;;;;22.50;45.80;;;;;;483394;246;1104;-51
2022/08/03 07:39:40;;;;;;;;;;;22.50;45.70;;;;;;483538;246;1177;-50
2022/08/03 07:41:41;;;;;;;;;;;22.50;45.80;;;;;;483441;246;1212;-51
2022/08/03 07:43:42;;;;;;;;;;;22.50;45.70;;;;;;483319;246;1090;-51
2022/08/03 07:45:44;;;;;;;;;;;22.50;45.70;;;;;;483376;246;1198;-51
2022/08/03 07:47:45;;;;;;;;;;;22.50;45.70;;;;;;483207;246;1094;-50
2022/08/03 07:49:46;;;;;;;;;;;22.50;45.70;;;;;;483196;246;1084;-51
2022/08/03 07:52:46;;;;;;;;;;;22.50;45.70;;;;;;483187;246;1144;-51
2022/08/03 07:53:49;;;;;;;;;;;22.50;45.70;;;;;;481584;246;1405;-51
2022/08/03 07:55:51;;;;;;;;;;;22.50;45.70;;;;;;483270;246;2180;-51
2022/08/03 07:57:52;;;;;;;;;;;22.50;45.70;;;;;;483339;246;1093;-50
2022/08/03 07:59:53;;;;;;;;;;;22.50;45.70;;;;;;483158;246;1632;-51
2022/08/03 08:01:55;;;;;;;;;;;22.50;45.70;;;;;;483264;246;1251;-51
2022/08/03 08:03:56;;;;;;;;;;;22.50;45.70;;;;;;483417;246;1370;-51
2022/08/03 08:05:57;;;;;;;;;;;22.50;45.80;;;;;;483384;246;1304;-51
2022/08/03 08:07:59;;;;;;;;;;;22.50;45.70;;;;;;483168;246;1356;-51
2022/08/03 08:10:00;;;;;;;;;;;22.50;45.60;;;;;;483141;246;1253;-51
2022/08/03 08:12:02;;;;;;;;;;;22.50;45.70;;;;;;483049;246;1249;-51
2022/08/03 08:14:04;;;;;;;;;;;22.60;45.70;;;;;;483399;246;1250;-51
2022/08/03 08:16:04;;;;;;;;;;;22.50;45.60;;;;;;483406;246;2188;-51
2022/08/03 08:18:06;;;;;;;;;;;22.50;45.70;;;;;;483726;246;1095;-51
2022/08/03 08:20:07;;;;;;;;;;;22.60;45.70;;;;;;483345;246;1274;-51
2022/08/03 08:22:08;;;;;;;;;;;22.60;45.70;;;;;;483393;246;1273;-51
2022/08/03 08:24:10;;;;;;;;;;;22.50;45.60;;;;;;483238;246;1206;-51
2022/08/03 08:26:11;;;;;;;;;;;22.50;45.70;;;;;;483187;246;1223;-51
2022/08/03 08:28:12;;;;;;;;;;;22.50;45.70;;;;;;483248;246;1171;-51
2022/08/03 08:30:14;;;;;;;;;;;22.50;45.70;;;;;;483433;246;1071;-51
2022/08/03 08:32:15;;;;;;;;;;;22.50;45.70;;;;;;483494;246;1260;-51
2022/08/03 08:34:16;;;;;;;;;;;22.60;45.80;;;;;;483096;246;1294;-51
2022/08/03 08:36:18;;;;;;;;;;;22.60;45.70;;;;;;483030;246;2121;-51
2022/08/03 08:38:19;;;;;;;;;;;22.60;45.70;;;;;;483124;246;1391;-50
2022/08/03 08:40:21;;;;;;;;;;;22.60;45.80;;;;;;483273;246;1267;-51
2022/08/03 08:42:22;;;;;;;;;;;22.60;45.70;;;;;;483128;246;1276;-50
2022/08/03 08:44:24;;;;;;;;;;;22.60;45.80;;;;;;483232;246;1242;-50
2022/08/03 08:46:25;;;;;;;;;;;22.60;45.70;;;;;;483292;246;1274;-51
2022/08/03 08:48:26;;;;;;;;;;;22.60;45.80;;;;;;483311;246;1250;-52
2022/08/03 08:50:28;;;;;;;;;;;22.60;45.80;;;;;;483376;246;1311;-51
2022/08/03 08:52:29;;;;;;;;;;;22.60;45.70;;;;;;483402;246;1214;-49
2022/08/03 08:54:31;;;;;;;;;;;22.60;45.80;;;;;;483455;246;1178;-51
2022/08/03 08:56:32;;;;;;;;;;;22.50;45.80;;;;;;483601;246;2188;-52
2022/08/03 08:58:33;;;;;;;;;;;22.60;45.80;;;;;;483335;246;1313;-51
2022/08/03 09:00:35;;;;;;;;;;;22.60;45.80;;;;;;483263;246;1084;-52
2022/08/03 09:02:36;;;;;;;;;;;22.50;45.70;;;;;;483477;246;1161;-51
2022/08/03 09:04:37;;;;;;;;;;;22.50;45.80;;;;;;483400;246;1108;-51
2022/08/03 09:06:39;;;;;;;;;;;22.50;45.70;;;;;;483286;246;1254;-51
2022/08/03 09:08:40;;;;;;;;;;;22.50;45.80;;;;;;483201;246;1281;-51
2022/08/03 09:10:41;;;;;;;;;;;22.50;45.80;;;;;;483211;246;1243;-51
2022/08/03 09:12:43;;;;;;;;;;;22.50;45.80;;;;;;483234;246;1101;-51
2022/08/03 09:14:44;;;;;;;;;;;22.50;45.70;;;;;;483296;246;1286;-51
2022/08/03 09:16:45;;;;;;;;;;;22.50;45.80;;;;;;483357;246;2180;-51
2022/08/03 09:18:47;;;;;;;;;;;22.50;45.80;;;;;;483113;246;1416;-51
2022/08/03 09:20:48;;;;;;;;;;;22.50;45.80;;;;;;483041;246;1213;-51
2022/08/03 09:22:49;;;;;;;;;;;22.50;45.80;;;;;;483127;246;1111;-51
2022/08/03 09:24:51;;;;;;;;;;;22.50;45.80;;;;;;483089;246;1210;-51
2022/08/03 09:26:52;;;;;;;;;;;22.50;45.80;;;;;;483004;246;1092;-51
2022/08/03 09:28:54;;;;;;;;;;;22.50;45.90;;;;;;483295;246;1258;-51
2022/08/03 09:30:55;;;;;;;;;;;22.50;45.90;;;;;;483236;246;1273;-51
2022/08/03 09:32:56;;;;;;;;;;;22.50;45.90;;;;;;483289;246;1241;-51
2022/08/03 09:34:58;;;;;;;;;;;22.50;45.80;;;;;;483287;246;1248;-50
2022/08/03 09:36:59;;;;;;;;;;;22.40;45.80;;;;;;483234;246;2132;-51
2022/08/03 09:39:01;;;;;;;;;;;22.50;45.80;;;;;;483289;246;1350;-51
2022/08/03 09:41:02;;;;;;;;;;;22.50;45.80;;;;;;483210;246;1215;-51
2022/08/03 09:43:06;;;;;;;;;;;22.50;45.80;;;;;;483153;246;1161;-51
2022/08/03 09:45:05;;;;;;;;;;;22.50;45.80;;;;;;482926;246;2146;-51
2022/08/03 09:47:06;;;;;;;;;;;22.50;45.70;;;;;;483075;246;1253;-50
2022/08/03 09:49:08;;;;;;;;;;;22.50;45.70;;;;;;483203;246;1160;-51
2022/08/03 09:51:09;;;;;;;;;;;22.50;45.70;;;;;;483289;246;1119;-51
2022/08/03 09:53:11;;;;;;;;;;;22.50;45.70;;;;;;483352;246;1210;-51
2022/08/03 09:55:12;;;;;;;;;;;22.50;45.70;;;;;;483409;246;1117;-51
2022/08/03 09:57:13;;;;;;;;;;;22.50;45.70;;;;;;483462;246;2136;-51
2022/08/03 09:59:15;;;;;;;;;;;22.40;45.70;;;;;;483351;246;1059;-51
2022/08/03 10:01:16;;;;;;;;;;;22.50;45.70;;;;;;483374;239;1301;-51
2022/08/03 10:03:17;;;;;;;;;;;22.40;45.70;;;;;;483344;246;1088;-51
2022/08/03 10:05:19;;;;;;;;;;;22.50;45.70;;;;;;483359;246;1141;-51
2022/08/03 10:07:20;;;;;;;;;;;22.50;45.70;;;;;;483311;246;1126;-51
2022/08/03 10:09:21;;;;;;;;;;;22.50;45.60;;;;;;483416;246;1272;-51
2022/08/03 10:11:23;;;;;;;;;;;22.50;45.60;;;;;;483279;246;1347;-51
2022/08/03 10:13:24;;;;;;;;;;;22.50;45.70;;;;;;483179;246;1062;-51
2022/08/03 10:15:25;;;;;;;;;;;22.50;45.60;;;;;;483299;246;1075;-51
2022/08/03 10:17:27;;;;;;;;;;;22.50;45.60;;;;;;483351;246;2191;-51
2022/08/03 10:19:28;;;;;;;;;;;22.40;45.60;;;;;;483198;246;1348;-51
2022/08/03 10:21:29;;;;;;;;;;;22.40;45.60;;;;;;483075;246;1183;-51
2022/08/03 10:23:31;;;;;;;;;;;22.40;45.60;;;;;;483416;246;1141;-51
2022/08/03 10:25:32;;;;;;;;;;;22.40;45.60;;;;;;483325;246;1062;-51
2022/08/03 10:27:33;;;;;;;;;;;22.40;45.70;;;;;;483373;246;1197;-51
2022/08/03 10:29:35;;;;;;;;;;;22.40;45.60;;;;;;483373;246;1085;-51
2022/08/03 10:31:36;;;;;;;;;;;22.40;45.60;;;;;;483293;246;1200;-51
2022/08/03 10:33:37;;;;;;;;;;;22.50;45.60;;;;;;483285;246;1122;-51
2022/08/03 10:35:39;;;;;;;;;;;22.40;45.60;;;;;;483263;246;1199;-51
2022/08/03 10:37:40;;;;;;;;;;;22.40;45.60;;;;;;483262;246;2125;-51
2022/08/03 10:39:52;;;;;;;;;;;22.40;45.50;;;;;;483313;246;1321;-51
2022/08/03 10:41:45;;;;;;;;;;;22.40;45.60;;;;;;482567;246;2021;-50
2022/08/03 10:43:46;;;;;;;;;;;22.40;45.50;;;;;;483088;246;2098;-51
2022/08/03 10:45:46;;;;;;;;;;;22.40;45.60;;;;;;483271;246;1949;-51
2022/08/03 10:47:48;;;;;;;;;;;22.40;45.60;;;;;;483276;246;1263;-50
2022/08/03 10:49:49;;;;;;;;;;;22.40;45.50;;;;;;483340;246;1126;-51
2022/08/03 10:51:50;;;;;;;;;;;22.40;45.50;;;;;;483408;246;1221;-51
2022/08/03 10:53:52;;;;;;;;;;;22.40;45.60;;;;;;483205;246;1082;-51
2022/08/03 10:58:13;;;;;;;;;;;22.40;45.50;;;;;;483136;246;1264;-51
2022/08/03 11:00:14;;;;;;;;;;;22.40;45.50;;;;;;483113;246;1216;-51
2022/08/03 11:02:16;;;;;;;;;;;22.40;45.50;;;;;;483192;246;1173;-51
2022/08/03 11:04:17;;;;;;;;;;;22.40;45.50;;;;;;483385;246;2027;-51
2022/08/03 11:06:19;;;;;;;;;;;22.40;45.40;;;;;;483354;246;1210;-51
2022/08/03 11:08:20;;;;;;;;;;;22.40;45.40;;;;;;483680;246;1295;-50
2022/08/03 11:10:21;;;;;;;;;;;22.40;45.50;;;;;;483309;246;1237;-52
2022/08/03 11:12:22;;;;;;;;;;;22.40;45.50;;;;;;483123;246;1212;-51
2022/08/03 11:14:24;;;;;;;;;;;22.40;45.40;;;;;;483527;246;1151;-51
2022/08/03 11:16:25;;;;;;;;;;;22.40;45.40;;;;;;483254;246;2199;-50
2022/08/03 11:18:26;;;;;;;;;;;22.40;45.40;;;;;;483347;246;1271;-50
2022/08/03 11:20:28;;;;;;;;;;;22.40;45.50;;;;;;483576;246;1090;-51
2022/08/03 11:22:29;;;;;;;;;;;22.40;45.50;;;;;;483413;246;1077;-51
2022/08/03 11:24:30;;;;;;;;;;;22.40;45.50;;;;;;483196;246;1278;-51
2022/08/03 11:26:32;;;;;;;;;;;22.40;45.40;;;;;;490743;242;1084;-51
2022/08/03 11:28:33;;;;;;;;;;;22.40;45.40;;;;;;483665;246;1232;-51
2022/08/03 11:30:34;;;;;;;;;;;22.40;45.40;;;;;;483380;246;1181;-51
2022/08/03 11:32:36;;;;;;;;;;;22.40;45.40;;;;;;483238;246;1104;-51
2022/08/03 11:34:37;;;;;;;;;;;22.40;45.40;;;;;;483359;246;1126;-51
2022/08/03 11:36:38;;;;;;;;;;;22.40;45.40;;;;;;483381;246;2196;-51
2022/08/03 11:38:42;;;;;;;;;;;22.40;45.40;;;;;;483416;246;1087;-51
2022/08/03 11:40:41;;;;;;;;;;;22.40;45.40;;;;;;483255;246;2332;-51
2022/08/03 11:42:47;;;;;;;;;;;22.40;45.40;;;;;;483308;246;1639;-51
2022/08/03 11:44:47;;;;;;;;;;;22.40;45.40;;;;;;483141;246;1255;-51
2022/08/03 11:46:49;;;;;;;;;;;22.40;45.40;;;;;;483177;246;1047;-51
2022/08/03 11:48:50;;;;;;;;;;;22.40;45.40;;;;;;483341;246;1133;-51
2022/08/03 11:50:51;;;;;;;;;;;22.40;45.30;;;;;;490970;242;1641;-51
2022/08/03 11:52:53;;;;;;;;;;;22.40;45.30;;;;;;483824;246;1292;-51
2022/08/03 11:54:54;;;;;;;;;;;22.40;45.40;;;;;;483308;246;1249;-51
2022/08/03 11:56:56;;;;;;;;;;;22.40;45.30;;;;;;490905;242;2200;-51
2022/08/03 11:58:57;;;;;;;;;;;22.40;45.30;;;;;;483663;246;1352;-51
2022/08/03 12:00:58;;;;;;;;;;;22.40;45.30;;;;;;483283;246;1252;-51
2022/08/03 12:02:59;;;;;;;;;;;22.40;45.30;;;;;;483851;246;1175;-51
2022/08/03 12:05:01;;;;;;;;;;;22.40;45.30;;;;;;483379;246;1132;-51
2022/08/03 12:07:03;;;;;;;;;;;22.50;45.30;;;;;;483766;246;1193;-51